首页
METAR-TAF:

METAR-TAF

机场 :

伊利, 宾夕法尼亚州, 美国

纬度: 42-04-48N, 经度: 080-10-57W, 海拔: 223米

当前天气观测

该预报发布于14分钟前的18:51 UTC
风速11节,风向西转西南,有时为16节阵风
温度 26°C
湿度 74%
气压 1017 hPa
能見度: 8.0公里
天空无云

METAR: KERI 241851Z 25011G16KT 5SM HZ CLR 26/21 A3004 RMK AO2 RAB1756E05 SLP168 P0000 T02610206

时间: 15:05 (19:05 UTC)

预报

该预报发布于1小时和18分钟前的17:47 UTC
预报有效从24日的 18点(UTC)到 25日的 18点(UTC)
风速10节,风向西,有时为20节阵风
能見度: 10公里
散云层高于5000英尺
从 24日的 1900点(UTC)
风速12节,风向西,有时为20节阵风
能見度: 10公里
散云层高于4000英尺, 积雨云.
附近有雷暴
从 24日的 2100点(UTC)
风速12节,风向西
能見度: 10公里
少量云层高于4000英尺
多云层高于6000英尺
从 25日的 0200点(UTC)
风速5节,风向西转西北
能見度: 10公里
多云层高于25000英尺

TAF: KERI 241747Z 2418/2518 27010G20KT P6SM SCT050 FM241900 27012G20KT P6SM VCTS SCT040CB FM242100 27012KT P6SM FEW040 BKN060 FM250200 30005KT P6SM BKN250

超过4000个机场的气象观测和天气预报(METAR&TAF报告)。

可查询的气象台以黄色和红色小点在地图上表示。

将鼠标移到小点上方,可查看气象台名称。

然后点击查看天气观测和预报。

如需切换地图:点击带黑十字的绿色按钮放大地图;点击带横线的绿色按钮缩小地图;或者点击绿色箭头查看邻近地区的地图。


METAR-TAF: